Kenney, Illinois
Current Conditions -  °F | °C
As of 8:55 AM on Monday 22 Dec 2014 (Local Time) from KAAA Reporting Station
Moderate Rain Moderate Rain  
Wind Chill: -2°   Ceiling: 1200
Heat Index:   Visibility: 2mi
Dew Point:   Wind: 8mph
Humidity: 94%   Direction: 120°ESE
Pressure: 29.82"   Gusts: NA
Location:  40.1°N, 89.09°W
Report Text: KAAA 221455Z AUTO 12007KT 2SM RA OVC012 02/01 A2982 RMK AO2 P0006 60008 T00200011
Loading
Personal Weather Stations






























Interactive Weather Map New forecast layout! Learn more

10-Day Weather Forecast

Advertisements
Track Severe Weather on mobile